sensor_id;sensor_type;location;lat;lon;timestamp;P1;durP1;ratioP1;P2;durP2;ratioP2
8887;SDS011;4480;52.370;9.748;2024-01-30T00:00:58;12.07;;;9.95;;
8887;SDS011;4480;52.370;9.748;2024-01-30T00:03:24;11.02;;;9.88;;
8887;SDS011;4480;52.370;9.748;2024-01-30T00:05:51;14.25;;;9.18;;
8887;SDS011;4480;52.370;9.748;2024-01-30T00:08:18;11.30;;;9.57;;
8887;SDS011;4480;52.370;9.748;2024-01-30T00:10:45;11.75;;;9.95;;
8887;SDS011;4480;52.370;9.748;2024-01-30T00:13:11;10.65;;;9.55;;
8887;SDS011;4480;52.370;9.748;2024-01-30T00:15:40;14.43;;;9.68;;
8887;SDS011;4480;52.370;9.748;2024-01-30T00:18:07;14.73;;;10.50;;
8887;SDS011;4480;52.370;9.748;2024-01-30T00:20:34;11.43;;;9.80;;
8887;SDS011;4480;52.370;9.748;2024-01-30T00:23:01;13.57;;;8.70;;
8887;SDS011;4480;52.370;9.748;2024-01-30T00:25:27;10.93;;;9.25;;
8887;SDS011;4480;52.370;9.748;2024-01-30T00:27:54;12.88;;;9.60;;
8887;SDS011;4480;52.370;9.748;2024-01-30T00:30:21;11.20;;;9.30;;
8887;SDS011;4480;52.370;9.748;2024-01-30T00:32:49;11.82;;;10.45;;
8887;SDS011;4480;52.370;9.748;2024-01-30T00:35:16;10.73;;;9.63;;
8887;SDS011;4480;52.370;9.748;2024-01-30T00:37:42;11.73;;;9.38;;
8887;SDS011;4480;52.370;9.748;2024-01-30T00:40:10;11.55;;;10.38;;
8887;SDS011;4480;52.370;9.748;2024-01-30T00:42:40;11.90;;;9.63;;
8887;SDS011;4480;52.370;9.748;2024-01-30T00:45:11;10.80;;;9.45;;
8887;SDS011;4480;52.370;9.748;2024-01-30T00:47:38;13.02;;;10.00;;
8887;SDS011;4480;52.370;9.748;2024-01-30T00:50:07;10.70;;;9.60;;
8887;SDS011;4480;52.370;9.748;2024-01-30T00:52:34;13.70;;;10.82;;
8887;SDS011;4480;52.370;9.748;2024-01-30T00:55:01;11.85;;;9.23;;
8887;SDS011;4480;52.370;9.748;2024-01-30T00:57:28;13.00;;;9.68;;
8887;SDS011;4480;52.370;9.748;2024-01-30T00:59:55;12.27;;;9.57;;
8887;SDS011;4480;52.370;9.748;2024-01-30T01:02:22;12.65;;;9.10;;
8887;SDS011;4480;52.370;9.748;2024-01-30T01:04:49;14.40;;;10.80;;
8887;SDS011;4480;52.370;9.748;2024-01-30T01:07:17;11.98;;;10.30;;
8887;SDS011;4480;52.370;9.748;2024-01-30T01:09:43;16.13;;;10.45;;
8887;SDS011;4480;52.370;9.748;2024-01-30T01:12:10;13.50;;;10.55;;
8887;SDS011;4480;52.370;9.748;2024-01-30T01:14:37;11.98;;;9.50;;
8887;SDS011;4480;52.370;9.748;2024-01-30T01:17:04;12.52;;;10.45;;
8887;SDS011;4480;52.370;9.748;2024-01-30T01:19:31;10.80;;;9.73;;
8887;SDS011;4480;52.370;9.748;2024-01-30T01:21:58;11.20;;;9.90;;
8887;SDS011;4480;52.370;9.748;2024-01-30T01:24:26;10.80;;;9.63;;
8887;SDS011;4480;52.370;9.748;2024-01-30T01:26:52;12.80;;;9.93;;
8887;SDS011;4480;52.370;9.748;2024-01-30T01:29:19;12.38;;;10.35;;
8887;SDS011;4480;52.370;9.748;2024-01-30T01:31:53;10.63;;;9.27;;
8887;SDS011;4480;52.370;9.748;2024-01-30T01:34:21;15.13;;;10.05;;
8887;SDS011;4480;52.370;9.748;2024-01-30T01:36:47;13.88;;;10.95;;
8887;SDS011;4480;52.370;9.748;2024-01-30T01:39:14;12.98;;;9.93;;
8887;SDS011;4480;52.370;9.748;2024-01-30T01:41:42;13.10;;;10.60;;
8887;SDS011;4480;52.370;9.748;2024-01-30T01:44:09;13.07;;;8.88;;
8887;SDS011;4480;52.370;9.748;2024-01-30T01:46:36;11.05;;;9.85;;
8887;SDS011;4480;52.370;9.748;2024-01-30T01:49:04;12.63;;;9.70;;
8887;SDS011;4480;52.370;9.748;2024-01-30T01:51:32;13.77;;;8.90;;
8887;SDS011;4480;52.370;9.748;2024-01-30T01:54:02;13.90;;;10.32;;
8887;SDS011;4480;52.370;9.748;2024-01-30T01:56:30;12.00;;;9.68;;
8887;SDS011;4480;52.370;9.748;2024-01-30T01:59:00;11.93;;;9.30;;
8887;SDS011;4480;52.370;9.748;2024-01-30T02:01:32;10.10;;;9.00;;
8887;SDS011;4480;52.370;9.748;2024-01-30T02:03:59;17.75;;;10.73;;
8887;SDS011;4480;52.370;9.748;2024-01-30T02:06:26;11.15;;;10.00;;
8887;SDS011;4480;52.370;9.748;2024-01-30T02:08:53;12.43;;;9.85;;
8887;SDS011;4480;52.370;9.748;2024-01-30T02:11:21;16.52;;;11.02;;
8887;SDS011;4480;52.370;9.748;2024-01-30T02:13:49;14.57;;;9.50;;
8887;SDS011;4480;52.370;9.748;2024-01-30T02:16:17;14.30;;;10.57;;
8887;SDS011;4480;52.370;9.748;2024-01-30T02:18:44;10.32;;;8.77;;
8887;SDS011;4480;52.370;9.748;2024-01-30T02:21:14;12.88;;;10.48;;
8887;SDS011;4480;52.370;9.748;2024-01-30T02:23:41;16.92;;;10.88;;
8887;SDS011;4480;52.370;9.748;2024-01-30T02:26:09;13.38;;;10.18;;
8887;SDS011;4480;52.370;9.748;2024-01-30T02:28:37;13.43;;;10.85;;
8887;SDS011;4480;52.370;9.748;2024-01-30T02:31:03;12.90;;;9.88;;
8887;SDS011;4480;52.370;9.748;2024-01-30T02:33:31;14.88;;;12.18;;
8887;SDS011;4480;52.370;9.748;2024-01-30T02:35:58;15.77;;;10.13;;
8887;SDS011;4480;52.370;9.748;2024-01-30T02:38:26;14.18;;;10.38;;
8887;SDS011;4480;52.370;9.748;2024-01-30T02:40:53;11.07;;;9.30;;
8887;SDS011;4480;52.370;9.748;2024-01-30T02:43:20;15.25;;;11.00;;
8887;SDS011;4480;52.370;9.748;2024-01-30T02:45:47;11.75;;;9.88;;
8887;SDS011;4480;52.370;9.748;2024-01-30T02:48:14;13.32;;;10.20;;
8887;SDS011;4480;52.370;9.748;2024-01-30T02:50:41;12.70;;;10.02;;
8887;SDS011;4480;52.370;9.748;2024-01-30T02:53:07;22.23;;;12.15;;
8887;SDS011;4480;52.370;9.748;2024-01-30T02:55:35;14.05;;;11.00;;
8887;SDS011;4480;52.370;9.748;2024-01-30T02:58:02;11.55;;;10.35;;
8887;SDS011;4480;52.370;9.748;2024-01-30T03:00:29;12.05;;;10.05;;
8887;SDS011;4480;52.370;9.748;2024-01-30T03:02:56;12.02;;;10.07;;
8887;SDS011;4480;52.370;9.748;2024-01-30T03:05:23;13.73;;;10.18;;
8887;SDS011;4480;52.370;9.748;2024-01-30T03:07:50;11.98;;;9.65;;
8887;SDS011;4480;52.370;9.748;2024-01-30T03:10:16;16.15;;;11.50;;
8887;SDS011;4480;52.370;9.748;2024-01-30T03:12:45;13.75;;;10.20;;
8887;SDS011;4480;52.370;9.748;2024-01-30T03:15:12;13.50;;;10.15;;
8887;SDS011;4480;52.370;9.748;2024-01-30T03:17:38;13.25;;;10.38;;
8887;SDS011;4480;52.370;9.748;2024-01-30T03:20:06;13.63;;;10.40;;
8887;SDS011;4480;52.370;9.748;2024-01-30T03:22:34;13.32;;;10.77;;
8887;SDS011;4480;52.370;9.748;2024-01-30T03:25:00;12.60;;;10.35;;
8887;SDS011;4480;52.370;9.748;2024-01-30T03:27:27;10.50;;;9.40;;
8887;SDS011;4480;52.370;9.748;2024-01-30T03:29:56;11.02;;;9.93;;
8887;SDS011;4480;52.370;9.748;2024-01-30T03:32:23;13.48;;;8.88;;
8887;SDS011;4480;52.370;9.748;2024-01-30T03:34:49;11.52;;;10.25;;
8887;SDS011;4480;52.370;9.748;2024-01-30T03:37:16;13.05;;;10.60;;
8887;SDS011;4480;52.370;9.748;2024-01-30T03:39:43;11.20;;;10.00;;
8887;SDS011;4480;52.370;9.748;2024-01-30T03:42:10;12.02;;;10.02;;
8887;SDS011;4480;52.370;9.748;2024-01-30T03:44:36;11.13;;;9.63;;
8887;SDS011;4480;52.370;9.748;2024-01-30T03:47:04;14.30;;;9.43;;
8887;SDS011;4480;52.370;9.748;2024-01-30T03:49:31;13.73;;;10.43;;
8887;SDS011;4480;52.370;9.748;2024-01-30T03:51:58;16.33;;;10.88;;
8887;SDS011;4480;52.370;9.748;2024-01-30T03:54:25;12.27;;;9.77;;
8887;SDS011;4480;52.370;9.748;2024-01-30T03:56:52;17.13;;;10.70;;
8887;SDS011;4480;52.370;9.748;2024-01-30T03:59:19;17.63;;;10.90;;
8887;SDS011;4480;52.370;9.748;2024-01-30T04:01:49;10.05;;;8.93;;
8887;SDS011;4480;52.370;9.748;2024-01-30T04:04:17;11.00;;;8.93;;
8887;SDS011;4480;52.370;9.748;2024-01-30T04:06:44;17.00;;;11.60;;
8887;SDS011;4480;52.370;9.748;2024-01-30T04:09:11;13.20;;;9.70;;
8887;SDS011;4480;52.370;9.748;2024-01-30T04:13:04;10.35;;;8.52;;
8887;SDS011;4480;52.370;9.748;2024-01-30T04:15:31;15.38;;;10.20;;
8887;SDS011;4480;52.370;9.748;2024-01-30T04:17:57;14.73;;;10.48;;
8887;SDS011;4480;52.370;9.748;2024-01-30T04:20:24;13.07;;;10.43;;
8887;SDS011;4480;52.370;9.748;2024-01-30T04:22:51;14.68;;;10.48;;
8887;SDS011;4480;52.370;9.748;2024-01-30T04:25:18;13.38;;;10.07;;
8887;SDS011;4480;52.370;9.748;2024-01-30T04:27:45;17.90;;;10.32;;
8887;SDS011;4480;52.370;9.748;2024-01-30T04:30:13;13.43;;;9.93;;
8887;SDS011;4480;52.370;9.748;2024-01-30T04:32:40;11.07;;;9.57;;
8887;SDS011;4480;52.370;9.748;2024-01-30T04:35:07;10.32;;;8.30;;
8887;SDS011;4480;52.370;9.748;2024-01-30T04:37:34;11.98;;;10.50;;
8887;SDS011;4480;52.370;9.748;2024-01-30T04:40:00;11.35;;;10.20;;
8887;SDS011;4480;52.370;9.748;2024-01-30T04:42:28;11.63;;;9.75;;
8887;SDS011;4480;52.370;9.748;2024-01-30T04:44:54;11.60;;;9.20;;
8887;SDS011;4480;52.370;9.748;2024-01-30T04:47:23;12.82;;;10.63;;
8887;SDS011;4480;52.370;9.748;2024-01-30T04:49:51;16.23;;;10.07;;
8887;SDS011;4480;52.370;9.748;2024-01-30T04:52:17;11.80;;;9.52;;
8887;SDS011;4480;52.370;9.748;2024-01-30T04:54:44;12.88;;;9.05;;
8887;SDS011;4480;52.370;9.748;2024-01-30T04:57:11;10.93;;;9.80;;
8887;SDS011;4480;52.370;9.748;2024-01-30T04:59:38;10.55;;;9.18;;
8887;SDS011;4480;52.370;9.748;2024-01-30T05:02:04;10.85;;;9.13;;
8887;SDS011;4480;52.370;9.748;2024-01-30T05:04:33;12.52;;;9.93;;
8887;SDS011;4480;52.370;9.748;2024-01-30T05:07:00;11.10;;;9.45;;
8887;SDS011;4480;52.370;9.748;2024-01-30T05:09:26;15.07;;;10.13;;
8887;SDS011;4480;52.370;9.748;2024-01-30T05:11:53;13.52;;;10.13;;
8887;SDS011;4480;52.370;9.748;2024-01-30T05:14:20;11.50;;;9.30;;
8887;SDS011;4480;52.370;9.748;2024-01-30T05:16:47;10.27;;;9.05;;
8887;SDS011;4480;52.370;9.748;2024-01-30T05:19:13;11.75;;;8.55;;
8887;SDS011;4480;52.370;9.748;2024-01-30T05:21:42;13.00;;;10.13;;
8887;SDS011;4480;52.370;9.748;2024-01-30T05:24:08;8.98;;;8.07;;
8887;SDS011;4480;52.370;9.748;2024-01-30T05:26:36;11.50;;;9.48;;
8887;SDS011;4480;52.370;9.748;2024-01-30T05:29:03;13.15;;;8.77;;
8887;SDS011;4480;52.370;9.748;2024-01-30T05:31:31;13.63;;;9.27;;
8887;SDS011;4480;52.370;9.748;2024-01-30T05:33:58;11.35;;;8.95;;
8887;SDS011;4480;52.370;9.748;2024-01-30T05:36:25;11.15;;;9.45;;
8887;SDS011;4480;52.370;9.748;2024-01-30T05:38:53;10.60;;;9.20;;
8887;SDS011;4480;52.370;9.748;2024-01-30T05:41:20;11.75;;;10.38;;
8887;SDS011;4480;52.370;9.748;2024-01-30T05:43:47;12.35;;;9.63;;
8887;SDS011;4480;52.370;9.748;2024-01-30T05:46:13;11.25;;;8.98;;
8887;SDS011;4480;52.370;9.748;2024-01-30T05:48:40;18.00;;;10.90;;
8887;SDS011;4480;52.370;9.748;2024-01-30T05:51:07;12.15;;;10.20;;
8887;SDS011;4480;52.370;9.748;2024-01-30T05:53:34;12.05;;;10.23;;
8887;SDS011;4480;52.370;9.748;2024-01-30T05:56:02;11.73;;;9.75;;
8887;SDS011;4480;52.370;9.748;2024-01-30T05:58:29;11.77;;;9.60;;
8887;SDS011;4480;52.370;9.748;2024-01-30T06:00:57;10.77;;;9.55;;
8887;SDS011;4480;52.370;9.748;2024-01-30T06:03:23;15.00;;;9.60;;
8887;SDS011;4480;52.370;9.748;2024-01-30T06:05:50;13.57;;;9.88;;
8887;SDS011;4480;52.370;9.748;2024-01-30T06:08:17;12.60;;;9.77;;
8887;SDS011;4480;52.370;9.748;2024-01-30T06:10:44;12.70;;;9.27;;
8887;SDS011;4480;52.370;9.748;2024-01-30T06:13:14;11.00;;;8.85;;
8887;SDS011;4480;52.370;9.748;2024-01-30T06:15:40;11.75;;;10.10;;
8887;SDS011;4480;52.370;9.748;2024-01-30T06:18:07;12.73;;;9.13;;
8887;SDS011;4480;52.370;9.748;2024-01-30T06:20:34;13.68;;;9.82;;
8887;SDS011;4480;52.370;9.748;2024-01-30T06:23:01;12.20;;;9.85;;
8887;SDS011;4480;52.370;9.748;2024-01-30T06:25:28;12.68;;;9.75;;
8887;SDS011;4480;52.370;9.748;2024-01-30T06:27:54;11.85;;;10.02;;
8887;SDS011;4480;52.370;9.748;2024-01-30T06:30:23;14.75;;;10.18;;
8887;SDS011;4480;52.370;9.748;2024-01-30T06:32:49;13.63;;;9.07;;
8887;SDS011;4480;52.370;9.748;2024-01-30T06:35:16;12.63;;;9.73;;
8887;SDS011;4480;52.370;9.748;2024-01-30T06:37:43;10.68;;;9.15;;
8887;SDS011;4480;52.370;9.748;2024-01-30T06:40:10;10.80;;;9.68;;
8887;SDS011;4480;52.370;9.748;2024-01-30T06:42:38;12.98;;;10.07;;
8887;SDS011;4480;52.370;9.748;2024-01-30T06:45:05;13.45;;;9.70;;
8887;SDS011;4480;52.370;9.748;2024-01-30T06:47:34;12.25;;;9.90;;
8887;SDS011;4480;52.370;9.748;2024-01-30T06:50:01;11.63;;;10.15;;
8887;SDS011;4480;52.370;9.748;2024-01-30T06:52:28;11.93;;;10.00;;
8887;SDS011;4480;52.370;9.748;2024-01-30T06:54:55;11.30;;;9.82;;
8887;SDS011;4480;52.370;9.748;2024-01-30T06:57:22;15.95;;;9.38;;
8887;SDS011;4480;52.370;9.748;2024-01-30T06:59:49;11.40;;;9.35;;
8887;SDS011;4480;52.370;9.748;2024-01-30T07:02:17;12.20;;;9.25;;
8887;SDS011;4480;52.370;9.748;2024-01-30T07:04:46;12.52;;;10.85;;
8887;SDS011;4480;52.370;9.748;2024-01-30T07:07:12;16.88;;;10.70;;
8887;SDS011;4480;52.370;9.748;2024-01-30T07:09:40;13.23;;;10.20;;
8887;SDS011;4480;52.370;9.748;2024-01-30T07:12:07;14.27;;;10.75;;
8887;SDS011;4480;52.370;9.748;2024-01-30T07:14:34;12.68;;;10.05;;
8887;SDS011;4480;52.370;9.748;2024-01-30T07:17:01;11.35;;;9.95;;
8887;SDS011;4480;52.370;9.748;2024-01-30T07:19:28;11.30;;;9.48;;
8887;SDS011;4480;52.370;9.748;2024-01-30T07:21:56;15.23;;;10.30;;
8887;SDS011;4480;52.370;9.748;2024-01-30T07:24:22;11.55;;;9.25;;
8887;SDS011;4480;52.370;9.748;2024-01-30T07:26:49;15.48;;;9.15;;
8887;SDS011;4480;52.370;9.748;2024-01-30T07:29:16;11.85;;;9.43;;
8887;SDS011;4480;52.370;9.748;2024-01-30T07:31:43;13.80;;;9.60;;
8887;SDS011;4480;52.370;9.748;2024-01-30T07:34:09;12.70;;;10.20;;
8887;SDS011;4480;52.370;9.748;2024-01-30T07:36:38;11.52;;;10.25;;
8887;SDS011;4480;52.370;9.748;2024-01-30T07:39:06;10.80;;;8.98;;
8887;SDS011;4480;52.370;9.748;2024-01-30T07:41:32;11.75;;;9.02;;
8887;SDS011;4480;52.370;9.748;2024-01-30T07:43:59;11.60;;;8.98;;
8887;SDS011;4480;52.370;9.748;2024-01-30T07:46:26;9.68;;;8.63;;
8887;SDS011;4480;52.370;9.748;2024-01-30T07:48:53;12.15;;;9.07;;
8887;SDS011;4480;52.370;9.748;2024-01-30T07:51:20;11.75;;;8.90;;
8887;SDS011;4480;52.370;9.748;2024-01-30T07:53:47;10.20;;;9.18;;
8887;SDS011;4480;52.370;9.748;2024-01-30T07:56:15;9.65;;;8.57;;
8887;SDS011;4480;52.370;9.748;2024-01-30T07:58:42;10.55;;;9.20;;
8887;SDS011;4480;52.370;9.748;2024-01-30T08:01:09;14.75;;;10.77;;
8887;SDS011;4480;52.370;9.748;2024-01-30T08:03:36;9.82;;;8.73;;
8887;SDS011;4480;52.370;9.748;2024-01-30T08:06:05;13.90;;;9.82;;
8887;SDS011;4480;52.370;9.748;2024-01-30T08:08:32;10.65;;;9.48;;
8887;SDS011;4480;52.370;9.748;2024-01-30T08:10:59;13.10;;;9.43;;
8887;SDS011;4480;52.370;9.748;2024-01-30T08:13:27;12.07;;;8.90;;
8887;SDS011;4480;52.370;9.748;2024-01-30T08:15:54;9.82;;;8.55;;
8887;SDS011;4480;52.370;9.748;2024-01-30T08:18:20;12.43;;;9.80;;
8887;SDS011;4480;52.370;9.748;2024-01-30T08:20:47;11.30;;;8.82;;
8887;SDS011;4480;52.370;9.748;2024-01-30T08:23:14;10.30;;;8.80;;
8887;SDS011;4480;52.370;9.748;2024-01-30T08:25:41;9.23;;;8.32;;
8887;SDS011;4480;52.370;9.748;2024-01-30T08:28:08;13.15;;;8.80;;
8887;SDS011;4480;52.370;9.748;2024-01-30T08:30:36;11.55;;;10.23;;
8887;SDS011;4480;52.370;9.748;2024-01-30T08:33:04;10.50;;;9.40;;
8887;SDS011;4480;52.370;9.748;2024-01-30T08:35:31;13.80;;;9.02;;
8887;SDS011;4480;52.370;9.748;2024-01-30T08:37:58;10.82;;;9.15;;
8887;SDS011;4480;52.370;9.748;2024-01-30T08:40:25;12.07;;;8.52;;
8887;SDS011;4480;52.370;9.748;2024-01-30T08:42:52;12.05;;;9.18;;
8887;SDS011;4480;52.370;9.748;2024-01-30T08:45:19;11.05;;;8.88;;
8887;SDS011;4480;52.370;9.748;2024-01-30T08:47:47;13.68;;;9.38;;
8887;SDS011;4480;52.370;9.748;2024-01-30T08:50:14;12.18;;;9.52;;
8887;SDS011;4480;52.370;9.748;2024-01-30T08:52:41;8.95;;;8.05;;
8887;SDS011;4480;52.370;9.748;2024-01-30T08:55:08;11.38;;;8.85;;
8887;SDS011;4480;52.370;9.748;2024-01-30T08:57:35;11.70;;;9.70;;
8887;SDS011;4480;52.370;9.748;2024-01-30T09:00:02;13.88;;;9.02;;
8887;SDS011;4480;52.370;9.748;2024-01-30T09:02:31;10.45;;;8.25;;
8887;SDS011;4480;52.370;9.748;2024-01-30T09:04:59;12.02;;;8.90;;
8887;SDS011;4480;52.370;9.748;2024-01-30T09:07:26;9.38;;;8.48;;
8887;SDS011;4480;52.370;9.748;2024-01-30T09:09:53;12.43;;;8.25;;
8887;SDS011;4480;52.370;9.748;2024-01-30T09:12:20;10.70;;;8.65;;
8887;SDS011;4480;52.370;9.748;2024-01-30T09:14:47;10.18;;;8.07;;
8887;SDS011;4480;52.370;9.748;2024-01-30T09:17:13;13.52;;;9.55;;
8887;SDS011;4480;52.370;9.748;2024-01-30T09:19:40;10.77;;;9.18;;
8887;SDS011;4480;52.370;9.748;2024-01-30T09:22:08;11.65;;;8.60;;
8887;SDS011;4480;52.370;9.748;2024-01-30T09:24:35;12.52;;;9.30;;
8887;SDS011;4480;52.370;9.748;2024-01-30T09:27:02;13.85;;;8.63;;
8887;SDS011;4480;52.370;9.748;2024-01-30T09:29:29;9.98;;;8.50;;
8887;SDS011;4480;52.370;9.748;2024-01-30T09:31:56;9.05;;;8.10;;
8887;SDS011;4480;52.370;9.748;2024-01-30T09:34:23;11.88;;;8.80;;
8887;SDS011;4480;52.370;9.748;2024-01-30T09:36:50;12.93;;;8.93;;
8887;SDS011;4480;52.370;9.748;2024-01-30T09:39:18;12.73;;;8.68;;
8887;SDS011;4480;52.370;9.748;2024-01-30T09:41:47;9.90;;;8.40;;
8887;SDS011;4480;52.370;9.748;2024-01-30T09:44:15;11.52;;;8.32;;
8887;SDS011;4480;52.370;9.748;2024-01-30T09:46:42;14.55;;;10.35;;
8887;SDS011;4480;52.370;9.748;2024-01-30T09:49:12;9.48;;;8.48;;
8887;SDS011;4480;52.370;9.748;2024-01-30T09:51:39;13.55;;;8.15;;
8887;SDS011;4480;52.370;9.748;2024-01-30T09:54:07;13.32;;;9.60;;
8887;SDS011;4480;52.370;9.748;2024-01-30T09:56:37;9.18;;;8.27;;
8887;SDS011;4480;52.370;9.748;2024-01-30T09:59:04;16.17;;;11.10;;
8887;SDS011;4480;52.370;9.748;2024-01-30T10:01:30;11.40;;;8.10;;
8887;SDS011;4480;52.370;9.748;2024-01-30T10:04:00;9.83;;;8.47;;
8887;SDS011;4480;52.370;9.748;2024-01-30T10:06:27;9.10;;;8.20;;
8887;SDS011;4480;52.370;9.748;2024-01-30T10:08:54;12.40;;;7.93;;
8887;SDS011;4480;52.370;9.748;2024-01-30T10:11:21;8.60;;;7.70;;
8887;SDS011;4480;52.370;9.748;2024-01-30T10:13:49;12.97;;;8.83;;
8887;SDS011;4480;52.370;9.748;2024-01-30T10:16:16;11.50;;;8.53;;
8887;SDS011;4480;52.370;9.748;2024-01-30T10:18:43;12.20;;;9.33;;
8887;SDS011;4480;52.370;9.748;2024-01-30T10:21:10;8.13;;;7.33;;
8887;SDS011;4480;52.370;9.748;2024-01-30T10:23:37;11.30;;;8.90;;
8887;SDS011;4480;52.370;9.748;2024-01-30T10:26:04;12.80;;;9.30;;
8887;SDS011;4480;52.370;9.748;2024-01-30T10:28:33;12.10;;;9.13;;
8887;SDS011;4480;52.370;9.748;2024-01-30T10:31:01;11.37;;;8.20;;
8887;SDS011;4480;52.370;9.748;2024-01-30T10:33:28;11.00;;;8.70;;
8887;SDS011;4480;52.370;9.748;2024-01-30T10:35:56;9.30;;;7.07;;
8887;SDS011;4480;52.370;9.748;2024-01-30T10:38:27;10.20;;;8.53;;
8887;SDS011;4480;52.370;9.748;2024-01-30T10:40:56;10.10;;;8.80;;
8887;SDS011;4480;52.370;9.748;2024-01-30T10:43:24;11.73;;;8.70;;
8887;SDS011;4480;52.370;9.748;2024-01-30T10:45:57;10.30;;;8.53;;
8887;SDS011;4480;52.370;9.748;2024-01-30T10:48:36;9.00;;;8.10;;
8887;SDS011;4480;52.370;9.748;2024-01-30T10:51:08;9.90;;;8.30;;
8887;SDS011;4480;52.370;9.748;2024-01-30T10:53:37;41.57;;;10.83;;
8887;SDS011;4480;52.370;9.748;2024-01-30T10:56:05;55.30;;;12.77;;
8887;SDS011;4480;52.370;9.748;2024-01-30T10:58:32;22.70;;;10.10;;
8887;SDS011;4480;52.370;9.748;2024-01-30T11:00:59;15.70;;;11.33;;
8887;SDS011;4480;52.370;9.748;2024-01-30T11:03:28;19.47;;;13.47;;
8887;SDS011;4480;52.370;9.748;2024-01-30T11:05:58;19.27;;;14.30;;
8887;SDS011;4480;52.370;9.748;2024-01-30T11:08:26;17.20;;;9.90;;
8887;SDS011;4480;52.370;9.748;2024-01-30T11:10:55;10.87;;;8.77;;
8887;SDS011;4480;52.370;9.748;2024-01-30T11:13:22;10.23;;;9.23;;
8887;SDS011;4480;52.370;9.748;2024-01-30T11:15:53;13.30;;;8.67;;
8887;SDS011;4480;52.370;9.748;2024-01-30T11:18:23;10.60;;;7.40;;
8887;SDS011;4480;52.370;9.748;2024-01-30T11:20:51;13.87;;;8.00;;
8887;SDS011;4480;52.370;9.748;2024-01-30T11:23:18;9.70;;;8.70;;
8887;SDS011;4480;52.370;9.748;2024-01-30T11:25:48;10.63;;;8.67;;
8887;SDS011;4480;52.370;9.748;2024-01-30T11:28:15;13.57;;;9.23;;
8887;SDS011;4480;52.370;9.748;2024-01-30T11:30:42;8.10;;;7.20;;
8887;SDS011;4480;52.370;9.748;2024-01-30T11:33:09;11.00;;;8.13;;
8887;SDS011;4480;52.370;9.748;2024-01-30T11:35:37;10.47;;;8.17;;
8887;SDS011;4480;52.370;9.748;2024-01-30T11:38:07;9.57;;;8.57;;
8887;SDS011;4480;52.370;9.748;2024-01-30T11:40:35;12.10;;;9.00;;
8887;SDS011;4480;52.370;9.748;2024-01-30T11:43:05;10.30;;;7.83;;
8887;SDS011;4480;52.370;9.748;2024-01-30T11:45:33;11.17;;;9.40;;
8887;SDS011;4480;52.370;9.748;2024-01-30T11:48:01;10.93;;;8.97;;
8887;SDS011;4480;52.370;9.748;2024-01-30T11:50:28;10.23;;;7.73;;
8887;SDS011;4480;52.370;9.748;2024-01-30T11:52:55;10.27;;;7.63;;
8887;SDS011;4480;52.370;9.748;2024-01-30T11:55:24;12.40;;;8.37;;
8887;SDS011;4480;52.370;9.748;2024-01-30T11:57:51;14.43;;;8.57;;
8887;SDS011;4480;52.370;9.748;2024-01-30T12:00:21;10.70;;;8.43;;
8887;SDS011;4480;52.370;9.748;2024-01-30T12:02:48;11.20;;;8.20;;
8887;SDS011;4480;52.370;9.748;2024-01-30T12:05:16;10.63;;;8.80;;
8887;SDS011;4480;52.370;9.748;2024-01-30T12:07:45;10.00;;;8.40;;
8887;SDS011;4480;52.370;9.748;2024-01-30T12:10:12;9.47;;;7.93;;
8887;SDS011;4480;52.370;9.748;2024-01-30T12:12:42;10.30;;;8.27;;
8887;SDS011;4480;52.370;9.748;2024-01-30T12:15:12;9.30;;;7.50;;
8887;SDS011;4480;52.370;9.748;2024-01-30T12:17:39;12.20;;;9.03;;
8887;SDS011;4480;52.370;9.748;2024-01-30T12:20:07;9.80;;;7.53;;
8887;SDS011;4480;52.370;9.748;2024-01-30T12:22:38;11.87;;;8.00;;
8887;SDS011;4480;52.370;9.748;2024-01-30T12:25:07;9.40;;;8.47;;
8887;SDS011;4480;52.370;9.748;2024-01-30T12:27:34;8.60;;;7.70;;
8887;SDS011;4480;52.370;9.748;2024-01-30T12:30:06;8.73;;;7.83;;
8887;SDS011;4480;52.370;9.748;2024-01-30T12:32:34;10.23;;;7.40;;
8887;SDS011;4480;52.370;9.748;2024-01-30T12:35:01;12.50;;;9.10;;
8887;SDS011;4480;52.370;9.748;2024-01-30T12:37:29;11.30;;;8.63;;
8887;SDS011;4480;52.370;9.748;2024-01-30T12:39:56;14.33;;;8.63;;
8887;SDS011;4480;52.370;9.748;2024-01-30T12:42:23;10.43;;;8.03;;
8887;SDS011;4480;52.370;9.748;2024-01-30T12:44:50;10.13;;;7.10;;
8887;SDS011;4480;52.370;9.748;2024-01-30T12:47:18;8.00;;;7.10;;
8887;SDS011;4480;52.370;9.748;2024-01-30T12:49:47;10.40;;;7.60;;
8887;SDS011;4480;52.370;9.748;2024-01-30T12:52:16;12.47;;;7.37;;
8887;SDS011;4480;52.370;9.748;2024-01-30T12:54:43;8.77;;;7.60;;
8887;SDS011;4480;52.370;9.748;2024-01-30T12:57:10;12.00;;;6.97;;
8887;SDS011;4480;52.370;9.748;2024-01-30T12:59:36;9.90;;;7.07;;
8887;SDS011;4480;52.370;9.748;2024-01-30T13:02:04;7.73;;;6.77;;
8887;SDS011;4480;52.370;9.748;2024-01-30T13:04:32;11.10;;;8.70;;
8887;SDS011;4480;52.370;9.748;2024-01-30T13:06:59;9.30;;;7.63;;
8887;SDS011;4480;52.370;9.748;2024-01-30T13:09:26;8.37;;;7.50;;
8887;SDS011;4480;52.370;9.748;2024-01-30T13:11:53;9.60;;;7.20;;
8887;SDS011;4480;52.370;9.748;2024-01-30T13:14:20;9.27;;;7.37;;
8887;SDS011;4480;52.370;9.748;2024-01-30T13:16:47;10.90;;;7.33;;
8887;SDS011;4480;52.370;9.748;2024-01-30T13:19:13;18.80;;;10.73;;
8887;SDS011;4480;52.370;9.748;2024-01-30T13:21:42;9.73;;;7.87;;
8887;SDS011;4480;52.370;9.748;2024-01-30T13:24:09;9.00;;;7.10;;
8887;SDS011;4480;52.370;9.748;2024-01-30T13:26:36;10.87;;;7.37;;
8887;SDS011;4480;52.370;9.748;2024-01-30T13:29:03;8.43;;;6.60;;
8887;SDS011;4480;52.370;9.748;2024-01-30T13:31:29;12.07;;;7.33;;
8887;SDS011;4480;52.370;9.748;2024-01-30T13:33:56;13.00;;;7.20;;
8887;SDS011;4480;52.370;9.748;2024-01-30T13:36:23;10.63;;;7.70;;
8887;SDS011;4480;52.370;9.748;2024-01-30T13:38:51;7.93;;;7.13;;
8887;SDS011;4480;52.370;9.748;2024-01-30T13:41:18;10.30;;;7.73;;
8887;SDS011;4480;52.370;9.748;2024-01-30T13:43:46;9.77;;;7.87;;
8887;SDS011;4480;52.370;9.748;2024-01-30T13:46:13;12.30;;;8.00;;
8887;SDS011;4480;52.370;9.748;2024-01-30T13:48:40;9.00;;;6.90;;
8887;SDS011;4480;52.370;9.748;2024-01-30T13:51:06;12.10;;;7.40;;
8887;SDS011;4480;52.370;9.748;2024-01-30T13:53:33;11.77;;;8.00;;
8887;SDS011;4480;52.370;9.748;2024-01-30T13:56:01;12.00;;;7.77;;
8887;SDS011;4480;52.370;9.748;2024-01-30T13:58:28;10.27;;;8.20;;
8887;SDS011;4480;52.370;9.748;2024-01-30T14:00:55;11.63;;;7.63;;
8887;SDS011;4480;52.370;9.748;2024-01-30T14:03:22;11.53;;;8.17;;
8887;SDS011;4480;52.370;9.748;2024-01-30T14:05:49;11.40;;;8.37;;
8887;SDS011;4480;52.370;9.748;2024-01-30T14:08:16;15.50;;;8.43;;
8887;SDS011;4480;52.370;9.748;2024-01-30T14:10:42;9.33;;;8.10;;
8887;SDS011;4480;52.370;9.748;2024-01-30T14:13:11;12.80;;;8.20;;
8887;SDS011;4480;52.370;9.748;2024-01-30T14:15:37;18.13;;;9.80;;
8887;SDS011;4480;52.370;9.748;2024-01-30T14:18:04;10.30;;;8.17;;
8887;SDS011;4480;52.370;9.748;2024-01-30T14:20:33;10.93;;;8.40;;
8887;SDS011;4480;52.370;9.748;2024-01-30T14:23:00;8.80;;;7.90;;
8887;SDS011;4480;52.370;9.748;2024-01-30T14:25:27;10.97;;;7.80;;
8887;SDS011;4480;52.370;9.748;2024-01-30T14:27:53;11.83;;;7.50;;
8887;SDS011;4480;52.370;9.748;2024-01-30T14:30:22;9.60;;;7.70;;
8887;SDS011;4480;52.370;9.748;2024-01-30T14:32:48;9.73;;;8.00;;
8887;SDS011;4480;52.370;9.748;2024-01-30T14:35:15;9.00;;;7.80;;
8887;SDS011;4480;52.370;9.748;2024-01-30T14:37:42;9.20;;;7.30;;
8887;SDS011;4480;52.370;9.748;2024-01-30T14:40:09;10.70;;;8.47;;
8887;SDS011;4480;52.370;9.748;2024-01-30T14:42:36;10.53;;;8.00;;
8887;SDS011;4480;52.370;9.748;2024-01-30T14:45:03;11.07;;;8.47;;
8887;SDS011;4480;52.370;9.748;2024-01-30T14:47:33;10.70;;;9.60;;
8887;SDS011;4480;52.370;9.748;2024-01-30T14:50:01;11.57;;;8.30;;
8887;SDS011;4480;52.370;9.748;2024-01-30T14:52:29;10.27;;;7.77;;
8887;SDS011;4480;52.370;9.748;2024-01-30T14:54:56;8.40;;;7.50;;
8887;SDS011;4480;52.370;9.748;2024-01-30T14:57:23;12.33;;;8.80;;
8887;SDS011;4480;52.370;9.748;2024-01-30T14:59:50;12.47;;;8.07;;
8887;SDS011;4480;52.370;9.748;2024-01-30T15:02:17;12.10;;;9.43;;